Time;durP1;ratioP1;P1;durP2;ratioP2;P2;SDS_P1;SDS_P2;PMS_P1;PMS_P2;Temp;Humidity;BMP_temperature;BMP_pressure;BME280_temperature;BME280_humidity;BME280_pressure;Samples;Min_cycle;Max_cycle;Signal;HPM_P1;HPM_P2
2024/02/15 00:02:14;;;;;;;0.80;0.80;;;1.50;99.90;;;;;;5115377;28;20199;-73
2024/02/15 00:04:40;;;;;;;0.98;0.98;;;1.50;99.90;;;;;;5115878;28;20659;-74
2024/02/15 00:07:06;;;;;;;0.80;0.80;;;1.50;99.90;;;;;;5117021;28;20605;-74
2024/02/15 00:09:32;;;;;;;0.57;0.57;;;1.50;99.90;;;;;;5110815;28;20223;-73
2024/02/15 00:11:59;;;;;;;0.63;0.63;;;1.60;99.90;;;;;;5096185;28;20203;-67
2024/02/15 00:14:27;;;;;;;0.70;0.70;;;1.60;99.90;;;;;;5095153;28;20193;-68
2024/02/15 00:16:56;;;;;;;0.80;0.80;;;1.60;99.90;;;;;;5095263;28;20195;-67
2024/02/15 00:19:24;;;;;;;0.70;0.70;;;1.50;99.90;;;;;;5073458;28;20299;-67
2024/02/15 00:21:55;;;;;;;0.68;0.68;;;1.60;99.90;;;;;;5074743;28;20185;-67
2024/02/15 00:24:27;;;;;;;0.70;0.70;;;1.60;99.90;;;;;;5074529;28;20189;-68
2024/02/15 00:26:57;;;;;;;0.60;0.60;;;1.60;99.90;;;;;;5056808;28;20193;-68
2024/02/15 00:29:36;;;;;;;0.65;0.65;;;1.60;99.90;;;;;;5074611;28;20205;-67
2024/02/15 00:32:03;;;;;;;0.70;0.70;;;1.60;99.90;;;;;;5074626;28;20262;-67
2024/02/15 00:34:29;;;;;;;0.63;0.63;;;1.60;99.90;;;;;;5088257;28;20648;-68
2024/02/15 00:36:58;;;;;;;0.70;0.70;;;1.60;99.90;;;;;;5094825;28;20197;-69
2024/02/15 00:39:23;;;;;;;0.60;0.60;;;1.60;99.90;;;;;;5076528;28;20266;-67
2024/02/15 00:42:00;;;;;;;0.90;0.90;;;1.60;99.90;;;;;;5094616;28;20212;-67
2024/02/15 00:44:29;;;;;;;0.73;0.73;;;1.60;99.90;;;;;;5076460;28;20673;-68
2024/02/15 00:46:57;;;;;;;1.95;1.70;;;1.60;99.90;;;;;;5076319;28;20200;-68
2024/02/15 00:49:22;;;;;;;0.63;0.63;;;1.60;99.90;;;;;;5094471;28;20192;-67
2024/02/15 00:51:54;;;;;;;0.70;0.70;;;1.60;99.90;;;;;;5094516;28;20271;-68
2024/02/15 00:54:48;;;;;;;1.02;1.02;;;1.60;99.90;;;;;;5094432;28;20188;-68
2024/02/15 00:57:14;;;;;;;0.70;0.70;;;1.50;99.90;;;;;;5092101;28;20254;-68
2024/02/15 00:59:39;;;;;;;1.00;1.00;;;1.50;99.90;;;;;;5094201;28;20244;-68
2024/02/15 01:02:05;;;;;;;0.60;0.60;;;1.50;99.90;;;;;;5076127;28;20203;-68
2024/02/15 01:04:31;;;;;;;0.63;0.63;;;1.50;99.90;;;;;;5094145;28;20199;-68
2024/02/15 01:06:56;;;;;;;0.77;0.77;;;1.50;99.90;;;;;;5094163;28;20611;-68
2024/02/15 01:09:22;;;;;;;0.80;0.80;;;1.50;99.90;;;;;;5093961;28;20304;-67
2024/02/15 01:11:48;;;;;;;0.95;0.95;;;1.50;99.90;;;;;;5093963;28;20203;-68
2024/02/15 01:14:15;;;;;;;0.70;0.70;;;1.50;99.90;;;;;;5094156;28;20192;-67
2024/02/15 01:16:41;;;;;;;0.55;0.55;;;1.50;99.90;;;;;;5080770;28;20255;-68
2024/02/15 01:19:07;;;;;;;0.70;0.70;;;1.50;99.90;;;;;;5073764;28;20634;-67
2024/02/15 01:21:33;;;;;;;0.80;0.80;;;1.60;99.90;;;;;;5073352;28;20193;-71
2024/02/15 01:24:00;;;;;;;1.30;1.15;;;1.60;99.90;;;;;;5056574;28;20539;-73
2024/02/15 01:26:26;;;;;;;0.60;0.60;;;1.60;99.90;;;;;;5074137;28;20185;-71
2024/02/15 01:28:52;;;;;;;0.70;0.70;;;1.60;99.90;;;;;;5073992;28;20268;-72
2024/02/15 01:31:18;;;;;;;0.88;0.85;;;1.60;99.90;;;;;;5092455;28;20230;-72
2024/02/15 01:33:45;;;;;;;0.77;0.77;;;1.60;99.90;;;;;;5094205;28;20238;-72
2024/02/15 01:36:15;;;;;;;0.60;0.60;;;1.50;99.90;;;;;;5094058;28;20301;-72
2024/02/15 01:38:41;;;;;;;1.10;0.90;;;1.50;99.90;;;;;;5093845;28;20192;-71
2024/02/15 01:41:08;;;;;;;0.52;0.52;;;1.50;99.90;;;;;;5094226;28;20214;-72
2024/02/15 01:43:34;;;;;;;0.65;0.65;;;1.50;99.90;;;;;;5093626;28;20263;-72
2024/02/15 01:46:03;;;;;;;1.30;1.20;;;1.50;99.90;;;;;;5094254;28;20200;-72
2024/02/15 01:48:30;;;;;;;0.57;0.57;;;1.50;99.90;;;;;;5093602;28;20716;-71
2024/02/15 01:50:58;;;;;;;0.80;0.80;;;1.50;99.90;;;;;;5094138;28;20196;-71
2024/02/15 01:53:24;;;;;;;0.70;0.70;;;1.50;99.90;;;;;;5076366;28;20196;-73
2024/02/15 01:55:51;;;;;;;0.60;0.60;;;1.50;99.90;;;;;;5094123;28;20533;-72
2024/02/15 01:58:18;;;;;;;0.80;0.80;;;1.50;99.90;;;;;;5093832;28;20562;-72
2024/02/15 02:00:43;;;;;;;0.65;0.65;;;1.50;99.90;;;;;;5093705;28;20352;-73
2024/02/15 02:03:12;;;;;;;0.60;0.60;;;1.50;99.90;;;;;;5093951;28;20680;-73
2024/02/15 02:05:38;;;;;;;0.70;0.70;;;1.50;99.90;;;;;;5093628;28;20199;-73
2024/02/15 02:08:09;;;;;;;1.98;1.55;;;1.50;99.90;;;;;;5075128;28;20196;-73
2024/02/15 02:10:38;;;;;;;1.00;0.82;;;1.50;99.90;;;;;;5107546;28;20225;-72
2024/02/15 02:13:04;;;;;;;0.60;0.60;;;1.60;99.90;;;;;;5112574;28;20270;-74
2024/02/15 02:15:32;;;;;;;0.60;0.60;;;1.60;99.90;;;;;;5112814;28;20625;-73
2024/02/15 02:18:01;;;;;;;0.70;0.70;;;1.60;99.90;;;;;;5114032;28;20195;-74
2024/02/15 02:20:27;;;;;;;0.90;0.90;;;1.60;99.90;;;;;;5112536;28;20257;-73
2024/02/15 02:23:07;;;;;;;0.70;0.70;;;1.60;99.90;;;;;;5113859;28;20188;-72
2024/02/15 02:25:34;;;;;;;1.45;1.35;;;1.50;99.90;;;;;;5112537;28;20201;-72
2024/02/15 02:28:00;;;;;;;0.70;0.70;;;1.50;99.90;;;;;;5112798;28;20194;-71
2024/02/15 02:30:29;;;;;;;0.50;0.50;;;1.60;99.90;;;;;;5112399;28;20203;-72
2024/02/15 02:32:56;;;;;;;0.70;0.70;;;1.60;99.90;;;;;;5113583;28;20196;-69
2024/02/15 02:35:22;;;;;;;0.70;0.70;;;1.60;99.90;;;;;;5112868;28;20199;-69
2024/02/15 02:37:49;;;;;;;0.95;0.95;;;1.60;99.90;;;;;;5113093;28;20673;-68
2024/02/15 02:40:14;;;;;;;0.60;0.60;;;1.60;99.90;;;;;;5113052;28;20215;-68
2024/02/15 02:42:53;;;;;;;2.05;1.85;;;1.60;99.90;;;;;;5112762;28;20202;-68
2024/02/15 02:45:22;;;;;;;0.90;0.90;;;1.60;99.90;;;;;;5113333;28;20706;-68
2024/02/15 02:47:48;;;;;;;0.60;0.60;;;1.60;99.90;;;;;;5111640;28;20207;-68
2024/02/15 02:50:14;;;;;;;0.80;0.80;;;1.60;99.90;;;;;;5112633;28;20658;-67
2024/02/15 02:52:40;;;;;;;0.60;0.60;;;1.60;99.90;;;;;;5112597;28;20221;-69
2024/02/15 02:55:09;;;;;;;1.45;1.35;;;1.70;99.90;;;;;;5112875;28;20191;-67
2024/02/15 02:57:38;;;;;;;0.85;0.85;;;1.60;99.90;;;;;;5112631;28;20188;-68
2024/02/15 03:00:12;;;;;;;0.90;0.90;;;1.60;99.90;;;;;;5112844;28;20207;-68
2024/02/15 03:02:43;;;;;;;0.70;0.70;;;1.60;99.90;;;;;;5112649;28;20201;-68
2024/02/15 03:05:11;;;;;;;0.68;0.68;;;1.60;99.90;;;;;;5112765;28;20266;-68
2024/02/15 03:07:37;;;;;;;5.45;2.50;;;1.60;99.90;;;;;;5112554;28;20188;-68
2024/02/15 03:10:08;;;;;;;0.60;0.60;;;1.60;99.90;;;;;;5112254;28;20219;-68
2024/02/15 03:12:37;;;;;;;0.80;0.80;;;1.60;99.90;;;;;;5112522;28;20587;-67
2024/02/15 03:15:11;;;;;;;0.60;0.60;;;1.60;99.90;;;;;;5112759;28;20198;-67
2024/02/15 03:17:41;;;;;;;0.60;0.60;;;1.60;99.90;;;;;;5092653;28;20196;-68
2024/02/15 03:20:20;;;;;;;0.70;0.70;;;1.60;99.90;;;;;;5090815;28;20212;-67
2024/02/15 03:22:55;;;;;;;0.70;0.70;;;1.60;99.90;;;;;;5102138;28;20191;-69
2024/02/15 03:25:23;;;;;;;0.70;0.70;;;1.60;99.90;;;;;;5111094;28;20232;-68
2024/02/15 03:27:51;;;;;;;0.60;0.60;;;1.60;99.90;;;;;;5112500;28;20184;-67
2024/02/15 03:30:19;;;;;;;0.60;0.60;;;1.60;99.90;;;;;;5112530;28;20192;-68
2024/02/15 03:32:45;;;;;;;0.70;0.70;;;1.60;99.90;;;;;;5112490;28;20667;-67
2024/02/15 03:35:14;;;;;;;0.80;0.80;;;1.60;99.90;;;;;;5111140;28;20731;-68
2024/02/15 03:37:40;;;;;;;0.70;0.70;;;1.60;99.90;;;;;;5112243;28;20191;-68
2024/02/15 03:40:08;;;;;;;0.73;0.73;;;1.60;99.90;;;;;;5114091;28;20604;-67
2024/02/15 03:42:36;;;;;;;0.55;0.55;;;1.60;99.90;;;;;;5114838;28;20198;-67
2024/02/15 03:45:03;;;;;;;0.70;0.70;;;1.60;99.90;;;;;;5115077;28;20655;-67
2024/02/15 03:47:29;;;;;;;0.85;0.85;;;1.60;99.90;;;;;;5116042;28;20616;-67
2024/02/15 03:49:55;;;;;;;1.50;1.10;;;1.60;99.90;;;;;;5114778;28;20215;-68
2024/02/15 03:52:21;;;;;;;0.75;0.75;;;1.60;99.90;;;;;;5114562;28;20328;-68
2024/02/15 03:54:47;;;;;;;0.52;0.52;;;1.60;99.90;;;;;;5114721;28;20255;-67
2024/02/15 03:57:13;;;;;;;1.48;1.38;;;1.60;99.90;;;;;;5115993;28;20271;-67
2024/02/15 03:59:40;;;;;;;0.70;0.70;;;1.60;99.90;;;;;;5114422;28;20353;-68
2024/02/15 04:02:11;;;;;;;0.65;0.65;;;1.60;99.90;;;;;;5106516;28;20658;-67
2024/02/15 04:04:37;;;;;;;0.60;0.60;;;1.60;99.90;;;;;;5098083;28;20663;-67
2024/02/15 04:07:03;;;;;;;0.70;0.70;;;1.70;99.90;;;;;;5095435;28;20188;-66
2024/02/15 04:09:28;;;;;;;0.70;0.70;;;1.60;99.90;;;;;;5094998;28;20228;-67
2024/02/15 04:11:56;;;;;;;0.68;0.68;;;1.60;99.90;;;;;;5095245;28;20219;-67
2024/02/15 04:14:23;;;;;;;0.63;0.63;;;1.70;99.90;;;;;;5095120;28;20192;-68
2024/02/15 04:16:48;;;;;;;1.88;1.15;;;1.60;99.90;;;;;;5095163;28;20199;-67
2024/02/15 04:19:14;;;;;;;0.63;0.63;;;1.60;99.90;;;;;;5106940;28;20331;-67
2024/02/15 04:21:40;;;;;;;0.57;0.57;;;1.60;99.90;;;;;;5115112;28;20187;-67
2024/02/15 04:24:06;;;;;;;0.70;0.70;;;1.60;99.90;;;;;;5114188;28;20283;-67
2024/02/15 04:26:33;;;;;;;0.68;0.68;;;1.60;99.90;;;;;;5113919;28;20728;-66
2024/02/15 04:28:59;;;;;;;0.60;0.60;;;1.60;99.90;;;;;;5113986;28;20514;-67
2024/02/15 04:31:28;;;;;;;0.70;0.70;;;1.60;99.90;;;;;;5115156;28;20195;-67
2024/02/15 04:33:54;;;;;;;0.50;0.50;;;1.60;99.90;;;;;;5113839;28;20195;-67
2024/02/15 04:36:23;;;;;;;0.85;0.85;;;1.60;99.90;;;;;;5115078;28;20561;-67
2024/02/15 04:38:52;;;;;;;0.80;0.80;;;1.70;99.90;;;;;;5115168;28;20723;-67
2024/02/15 04:41:25;;;;;;;0.60;0.60;;;1.70;99.90;;;;;;5115048;28;20728;-68
2024/02/15 04:43:52;;;;;;;1.15;1.10;;;1.70;99.90;;;;;;5115141;28;20195;-67
2024/02/15 04:46:21;;;;;;;1.33;0.95;;;1.70;99.90;;;;;;5114961;28;20195;-68
2024/02/15 04:48:51;;;;;;;0.60;0.60;;;1.70;99.90;;;;;;5114894;28;20659;-67
2024/02/15 04:51:17;;;;;;;0.70;0.70;;;1.70;99.90;;;;;;5113525;28;20188;-67
2024/02/15 04:53:46;;;;;;;1.15;1.00;;;1.70;99.90;;;;;;5114814;28;20670;-67
2024/02/15 04:56:16;;;;;;;0.70;0.70;;;1.80;99.90;;;;;;5114608;28;20187;-68
2024/02/15 04:58:45;;;;;;;1.00;1.00;;;1.80;99.90;;;;;;5114576;28;20192;-67
2024/02/15 05:01:14;;;;;;;0.90;0.90;;;1.80;99.90;;;;;;5111525;28;20194;-67
2024/02/15 05:03:40;;;;;;;0.90;0.90;;;1.80;99.90;;;;;;5114489;28;20599;-67
2024/02/15 05:06:07;;;;;;;0.60;0.60;;;1.80;99.90;;;;;;5114705;28;20262;-67
2024/02/15 05:08:35;;;;;;;0.70;0.70;;;1.80;99.90;;;;;;5112994;28;20195;-68
2024/02/15 05:11:00;;;;;;;0.60;0.60;;;1.80;99.90;;;;;;5114485;28;20238;-68
2024/02/15 05:13:26;;;;;;;0.70;0.70;;;1.80;99.90;;;;;;5114333;28;20195;-68
2024/02/15 05:15:52;;;;;;;0.90;0.90;;;1.80;99.90;;;;;;5114280;28;20270;-68
2024/02/15 05:18:18;;;;;;;0.52;0.52;;;1.80;99.90;;;;;;5114472;28;20227;-67
2024/02/15 05:20:44;;;;;;;0.70;0.70;;;1.80;99.90;;;;;;5112646;28;20679;-67
2024/02/15 05:23:09;;;;;;;0.60;0.60;;;1.80;99.90;;;;;;5114334;28;20240;-67
2024/02/15 05:25:35;;;;;;;1.05;1.05;;;1.80;99.90;;;;;;5114118;28;20194;-68
2024/02/15 05:28:01;;;;;;;0.60;0.60;;;1.80;99.90;;;;;;5114159;28;20274;-67
2024/02/15 05:30:27;;;;;;;0.55;0.55;;;1.80;99.90;;;;;;5112777;28;20289;-68
2024/02/15 05:32:53;;;;;;;0.70;0.70;;;1.80;99.90;;;;;;5114083;28;20187;-68
2024/02/15 05:35:19;;;;;;;0.63;0.63;;;1.80;99.90;;;;;;5114038;28;20233;-68
2024/02/15 05:37:45;;;;;;;0.60;0.60;;;1.80;99.90;;;;;;5112711;28;20683;-67
2024/02/15 05:40:15;;;;;;;0.60;0.60;;;1.80;99.90;;;;;;5113954;28;20221;-68
2024/02/15 05:42:45;;;;;;;0.70;0.70;;;1.80;99.90;;;;;;5113676;28;20213;-68
2024/02/15 05:45:26;;;;;;;0.70;0.70;;;1.80;99.90;;;;;;5114288;28;20187;-68
2024/02/15 05:47:55;;;;;;;0.85;0.80;;;1.80;99.90;;;;;;5112505;28;20696;-68
2024/02/15 05:50:21;;;;;;;0.70;0.70;;;1.80;99.90;;;;;;5113791;28;20195;-68
2024/02/15 05:52:47;;;;;;;1.38;1.27;;;1.80;99.90;;;;;;5113677;28;20247;-68
2024/02/15 05:55:16;;;;;;;0.75;0.75;;;1.80;99.90;;;;;;5112552;28;20230;-67
2024/02/15 05:57:45;;;;;;;0.60;0.60;;;1.80;99.90;;;;;;5102975;28;20195;-67
2024/02/15 06:00:11;;;;;;;0.70;0.70;;;1.80;99.90;;;;;;5093209;28;20208;-67
2024/02/15 06:02:37;;;;;;;1.25;1.17;;;1.80;99.90;;;;;;5091282;28;20192;-72
2024/02/15 06:05:04;;;;;;;0.63;0.63;;;1.80;99.90;;;;;;5091926;28;20564;-72
2024/02/15 06:07:31;;;;;;;0.68;0.68;;;1.80;99.90;;;;;;5092807;28;20196;-73
2024/02/15 06:10:02;;;;;;;4.00;1.98;;;1.80;99.90;;;;;;5092884;28;20699;-72
2024/02/15 06:12:31;;;;;;;0.65;0.65;;;1.80;99.90;;;;;;5092519;28;20290;-72
2024/02/15 06:14:57;;;;;;;0.70;0.70;;;1.80;99.90;;;;;;5095059;28;20655;-73
2024/02/15 06:17:23;;;;;;;0.60;0.60;;;1.80;99.90;;;;;;5113205;28;20187;-73
2024/02/15 06:19:49;;;;;;;0.80;0.80;;;1.80;99.90;;;;;;5113242;28;20239;-73
2024/02/15 06:22:15;;;;;;;0.70;0.70;;;1.80;99.90;;;;;;5113187;28;20223;-73
2024/02/15 06:24:44;;;;;;;0.80;0.80;;;1.90;99.90;;;;;;5113050;28;20195;-73
2024/02/15 06:27:09;;;;;;;0.68;0.68;;;1.80;99.90;;;;;;5113238;28;20184;-73
2024/02/15 06:40:33;;;;;;;1.25;1.15;;;1.80;99.90;;;;;;5110377;28;20296;-73
2024/02/15 06:42:58;;;;;;;0.70;0.70;;;1.90;99.90;;;;;;5108659;28;20268;-73
2024/02/15 06:45:24;;;;;;;0.95;0.95;;;1.80;99.90;;;;;;5112866;28;20651;-73
2024/02/15 06:47:50;;;;;;;1.30;1.23;;;1.90;99.90;;;;;;5094950;28;20200;-74
2024/02/15 06:50:16;;;;;;;1.10;1.08;;;1.90;99.90;;;;;;5112939;28;20206;-74
2024/02/15 06:52:42;;;;;;;2.40;2.20;;;1.90;99.90;;;;;;5094310;28;20244;-72
2024/02/15 06:55:11;;;;;;;1.25;1.20;;;1.90;99.90;;;;;;5110989;28;20609;-72
2024/02/15 06:57:40;;;;;;;0.65;0.65;;;1.90;99.90;;;;;;5094967;28;20607;-72
2024/02/15 07:00:07;;;;;;;3.38;1.38;;;2.00;99.90;;;;;;5112796;28;20271;-72
2024/02/15 07:02:36;;;;;;;0.60;0.60;;;2.00;99.90;;;;;;5112570;28;20648;-72
2024/02/15 07:05:04;;;;;;;1.50;1.38;;;2.00;99.90;;;;;;5112811;28;20189;-72
2024/02/15 07:07:31;;;;;;;1.27;1.17;;;2.00;99.90;;;;;;5112484;28;20188;-72
2024/02/15 07:09:57;;;;;;;0.57;0.57;;;2.10;99.90;;;;;;5112603;28;20678;-72
2024/02/15 07:12:23;;;;;;;0.70;0.70;;;2.10;99.90;;;;;;5112708;28;20196;-67
2024/02/15 07:14:49;;;;;;;0.65;0.65;;;2.10;99.90;;;;;;5115297;28;20187;-67
2024/02/15 07:17:15;;;;;;;1.45;1.35;;;2.10;99.90;;;;;;5116918;28;20195;-67
2024/02/15 07:19:44;;;;;;;0.80;0.80;;;2.20;99.90;;;;;;5116425;28;20203;-67
2024/02/15 07:22:10;;;;;;;1.80;1.65;;;2.20;99.90;;;;;;5116678;28;20651;-67
2024/02/15 07:24:38;;;;;;;3.17;2.22;;;2.20;99.90;;;;;;5116398;28;20195;-68
2024/02/15 07:27:04;;;;;;;1.17;1.13;;;2.30;99.90;;;;;;5116692;28;20665;-67
2024/02/15 07:29:32;;;;;;;1.13;1.13;;;2.30;99.90;;;;;;5116258;28;20223;-68
2024/02/15 07:32:00;;;;;;;1.20;1.02;;;2.30;99.90;;;;;;5098179;28;20199;-67
2024/02/15 07:34:26;;;;;;;3.60;2.05;;;2.30;99.90;;;;;;5116370;28;20188;-69
2024/02/15 07:36:52;;;;;;;1.83;1.73;;;2.20;99.90;;;;;;5116393;28;20195;-67
2024/02/15 07:39:24;;;;;;;1.30;1.23;;;2.20;99.90;;;;;;5098074;28;20697;-68
2024/02/15 07:41:51;;;;;;;0.60;0.60;;;2.30;99.90;;;;;;5097897;28;20248;-67
2024/02/15 07:44:17;;;;;;;0.85;0.85;;;2.40;99.90;;;;;;5098053;28;20195;-67
2024/02/15 07:46:43;;;;;;;1.25;1.15;;;2.40;99.90;;;;;;5116069;28;20624;-67
2024/02/15 07:49:09;;;;;;;0.80;0.80;;;2.40;99.90;;;;;;5114510;28;20218;-67
2024/02/15 07:51:35;;;;;;;0.70;0.70;;;2.50;99.90;;;;;;5095525;28;20223;-68
2024/02/15 07:54:01;;;;;;;0.60;0.60;;;2.50;99.90;;;;;;5077474;28;20673;-67
2024/02/15 07:56:27;;;;;;;0.75;0.70;;;2.60;99.90;;;;;;5077347;28;20286;-68
2024/02/15 07:58:53;;;;;;;1.40;1.30;;;2.60;99.90;;;;;;5095604;28;20219;-67
2024/02/15 08:01:22;;;;;;;0.70;0.70;;;2.70;99.90;;;;;;5095457;28;20192;-68
2024/02/15 08:03:48;;;;;;;0.50;0.50;;;2.70;99.90;;;;;;5103589;28;20654;-67
2024/02/15 08:06:15;;;;;;;0.80;0.80;;;2.60;99.90;;;;;;5115563;28;20207;-68
2024/02/15 08:08:46;;;;;;;2.05;1.17;;;2.60;99.90;;;;;;5115558;28;20674;-67
2024/02/15 08:11:16;;;;;;;0.60;0.60;;;2.60;99.90;;;;;;5115657;28;20627;-67
2024/02/15 08:13:50;;;;;;;0.50;0.50;;;2.60;99.90;;;;;;5115471;28;20184;-67
2024/02/15 08:16:20;;;;;;;0.93;0.93;;;2.70;99.90;;;;;;5115703;28;20205;-67
2024/02/15 08:18:46;;;;;;;0.80;0.80;;;2.70;99.90;;;;;;5114258;28;20567;-68
2024/02/15 08:21:12;;;;;;;0.60;0.60;;;2.80;99.90;;;;;;5115282;28;20187;-69
2024/02/15 08:23:38;;;;;;;1.02;0.95;;;2.90;99.90;;;;;;5115410;28;20625;-67
2024/02/15 08:26:04;;;;;;;1.10;1.05;;;2.90;99.90;;;;;;5115148;28;20248;-67
2024/02/15 08:28:30;;;;;;;0.60;0.60;;;3.00;99.90;;;;;;5115073;28;20188;-69
2024/02/15 08:30:57;;;;;;;0.90;0.85;;;3.00;99.90;;;;;;5115189;28;20267;-67
2024/02/15 08:33:24;;;;;;;0.50;0.50;;;2.90;99.90;;;;;;5115017;28;20205;-68
2024/02/15 08:35:49;;;;;;;0.68;0.68;;;2.90;99.90;;;;;;5115282;28;20191;-68
2024/02/15 08:38:16;;;;;;;0.70;0.70;;;2.90;99.90;;;;;;5115386;28;20191;-68
2024/02/15 08:40:44;;;;;;;0.60;0.60;;;2.80;99.90;;;;;;5115119;28;20214;-68
2024/02/15 08:43:10;;;;;;;0.60;0.60;;;2.70;99.90;;;;;;5113824;28;20198;-67
2024/02/15 08:45:36;;;;;;;0.60;0.60;;;2.70;99.90;;;;;;5113716;28;20635;-69
2024/02/15 08:48:04;;;;;;;0.60;0.60;;;2.60;99.90;;;;;;5094701;28;20219;-68
2024/02/15 08:50:30;;;;;;;0.60;0.60;;;2.60;99.90;;;;;;5094548;28;20212;-68
2024/02/15 08:52:56;;;;;;;0.88;0.88;;;2.60;99.90;;;;;;5094572;28;20215;-69
2024/02/15 08:55:26;;;;;;;0.50;0.50;;;2.50;99.90;;;;;;5094486;28;20216;-68
2024/02/15 08:57:53;;;;;;;0.57;0.57;;;2.50;99.90;;;;;;5094559;28;20717;-68
2024/02/15 09:00:18;;;;;;;0.60;0.60;;;2.60;99.90;;;;;;5103269;28;20207;-69
2024/02/15 09:02:45;;;;;;;0.50;0.50;;;2.60;99.90;;;;;;5114777;28;20199;-68
2024/02/15 09:05:14;;;;;;;0.70;0.70;;;2.60;99.90;;;;;;5113562;28;20707;-68
2024/02/15 09:07:50;;;;;;;0.60;0.60;;;2.60;99.90;;;;;;5114525;28;20195;-69
2024/02/15 09:10:17;;;;;;;0.60;0.60;;;2.60;99.90;;;;;;5113430;28;20222;-68
2024/02/15 09:12:47;;;;;;;0.70;0.70;;;2.60;99.90;;;;;;5114379;28;20219;-68
2024/02/15 09:15:13;;;;;;;0.50;0.50;;;2.60;99.90;;;;;;5114578;28;20191;-69
2024/02/15 09:17:38;;;;;;;0.65;0.65;;;2.60;99.90;;;;;;5114398;28;20191;-69
2024/02/15 09:20:14;;;;;;;0.65;0.65;;;2.60;99.90;;;;;;5112924;28;20705;-68
2024/02/15 09:22:41;;;;;;;0.70;0.70;;;2.70;99.90;;;;;;5114204;28;20275;-69
2024/02/15 09:25:07;;;;;;;0.70;0.70;;;2.70;99.90;;;;;;5114446;28;20273;-68
2024/02/15 09:27:34;;;;;;;0.68;0.68;;;2.70;99.90;;;;;;5114050;28;20188;-69
2024/02/15 09:29:59;;;;;;;0.50;0.50;;;2.70;99.90;;;;;;5113069;28;20569;-69
2024/02/15 09:32:25;;;;;;;0.60;0.60;;;2.70;99.90;;;;;;5114096;28;20192;-69
2024/02/15 09:34:51;;;;;;;0.60;0.60;;;2.80;99.90;;;;;;5112971;28;20248;-68
2024/02/15 09:37:16;;;;;;;0.60;0.60;;;2.80;99.90;;;;;;5113488;28;20195;-69
2024/02/15 09:39:42;;;;;;;0.60;0.60;;;2.80;99.90;;;;;;5112547;28;20207;-68
2024/02/15 09:42:09;;;;;;;1.20;1.10;;;2.70;99.90;;;;;;5112371;28;20244;-69
2024/02/15 09:44:34;;;;;;;0.55;0.55;;;2.80;99.90;;;;;;5112516;28;20486;-67
2024/02/15 09:47:05;;;;;;;1.00;1.00;;;2.70;99.90;;;;;;5113946;28;20681;-69
2024/02/15 09:49:36;;;;;;;0.75;0.75;;;2.70;99.90;;;;;;5113786;28;20704;-69
2024/02/15 09:52:04;;;;;;;0.60;0.60;;;2.60;99.90;;;;;;5112571;28;20230;-69
2024/02/15 09:54:30;;;;;;;0.60;0.60;;;2.60;99.90;;;;;;5112380;28;20202;-70
2024/02/15 09:56:58;;;;;;;0.60;0.60;;;2.60;99.90;;;;;;5100267;28;20234;-70
2024/02/15 09:59:23;;;;;;;0.60;0.60;;;2.50;99.90;;;;;;5091953;28;20663;-69
2024/02/15 10:01:50;;;;;;;0.65;0.65;;;2.50;99.90;;;;;;5093252;28;20284;-69
2024/02/15 10:04:16;;;;;;;0.60;0.60;;;2.50;99.90;;;;;;5093315;28;20196;-69
2024/02/15 10:06:42;;;;;;;0.90;0.90;;;2.40;99.90;;;;;;5093137;28;20585;-69
2024/02/15 10:09:28;;;;;;;0.60;0.60;;;2.30;99.90;;;;;;5093106;28;20659;-69
2024/02/15 10:11:56;;;;;;;1.00;0.93;;;2.30;99.90;;;;;;5093111;28;20184;-70
2024/02/15 10:14:22;;;;;;;0.70;0.70;;;2.40;99.90;;;;;;5093035;28;20188;-70
2024/02/15 10:16:48;;;;;;;0.60;0.60;;;2.60;99.90;;;;;;5093105;28;20186;-68
2024/02/15 10:19:15;;;;;;;0.60;0.60;;;2.70;99.90;;;;;;5093022;28;20223;-70
2024/02/15 10:21:41;;;;;;;0.75;0.75;;;2.80;99.90;;;;;;5091407;28;20258;-70
2024/02/15 10:24:08;;;;;;;0.60;0.60;;;2.80;99.90;;;;;;5093010;28;20269;-69
2024/02/15 10:26:35;;;;;;;0.70;0.70;;;2.80;99.90;;;;;;5092698;28;20184;-69
2024/02/15 10:29:08;;;;;;;0.70;0.70;;;2.90;99.90;;;;;;5092979;28;20188;-69
2024/02/15 10:31:39;;;;;;;0.60;0.60;;;2.90;99.90;;;;;;5091395;28;20717;-69
2024/02/15 10:34:07;;;;;;;0.70;0.70;;;3.00;99.90;;;;;;5092833;28;20263;-70
2024/02/15 10:36:36;;;;;;;0.75;0.75;;;3.00;99.90;;;;;;5095701;28;20314;-77
2024/02/15 10:39:23;;;;;;;0.80;0.80;;;2.80;99.90;;;;;;5099105;28;20211;-77
2024/02/15 10:41:54;;;;;;;0.60;0.60;;;2.60;99.90;;;;;;5091506;28;20321;-73
2024/02/15 10:44:25;;;;;;;0.70;0.70;;;2.60;99.90;;;;;;5092840;28;20205;-73
2024/02/15 10:46:52;;;;;;;1.13;1.00;;;2.70;99.90;;;;;;5092456;28;20196;-71
2024/02/15 10:49:25;;;;;;;1.17;1.08;;;2.80;99.90;;;;;;5092624;28;20699;-71
2024/02/15 10:51:56;;;;;;;0.70;0.70;;;2.70;99.90;;;;;;5093402;28;20202;-70
2024/02/15 10:54:42;;;;;;;0.50;0.50;;;2.60;99.90;;;;;;5112802;28;20191;-71
2024/02/15 10:57:10;;;;;;;0.80;0.80;;;2.70;99.90;;;;;;5111682;28;20210;-71
2024/02/15 10:59:38;;;;;;;0.57;0.57;;;2.80;99.90;;;;;;5112728;28;20206;-72
2024/02/15 11:02:17;;;;;;;0.63;0.63;;;3.00;99.90;;;;;;5112990;28;20187;-72
2024/02/15 11:04:44;;;;;;;0.50;0.50;;;3.10;99.90;;;;;;5112813;28;20667;-72
2024/02/15 11:07:11;;;;;;;0.50;0.50;;;3.00;99.90;;;;;;5112932;28;20555;-72
2024/02/15 11:09:38;;;;;;;0.52;0.52;;;3.00;99.90;;;;;;5111251;28;20231;-72
2024/02/15 11:12:06;;;;;;;0.65;0.65;;;3.00;99.90;;;;;;5112671;28;20195;-72
2024/02/15 11:14:34;;;;;;;0.70;0.70;;;2.90;99.90;;;;;;5112605;28;20187;-72
2024/02/15 11:17:02;;;;;;;0.57;0.57;;;2.90;99.90;;;;;;5112832;28;20655;-72
2024/02/15 11:19:41;;;;;;;0.70;0.70;;;2.80;99.90;;;;;;5112590;28;20628;-71
2024/02/15 11:22:11;;;;;;;0.70;0.70;;;2.80;99.90;;;;;;5112929;28;20183;-71
2024/02/15 11:24:45;;;;;;;0.55;0.55;;;2.80;99.90;;;;;;5111471;28;20252;-71
2024/02/15 11:27:13;;;;;;;0.60;0.60;;;2.90;99.90;;;;;;5111736;28;20559;-71
2024/02/15 11:30:04;;;;;;;0.80;0.80;;;2.90;99.90;;;;;;5111564;28;20674;-71
2024/02/15 11:32:44;;;;;;;1.35;1.25;;;3.00;99.90;;;;;;5112666;28;20582;-72
2024/02/15 11:35:14;;;;;;;1.38;1.27;;;3.00;99.90;;;;;;5102858;28;20212;-71
2024/02/15 11:37:53;;;;;;;0.70;0.70;;;3.00;99.90;;;;;;5092280;28;20809;-72
2024/02/15 11:40:23;;;;;;;0.75;0.75;;;2.90;99.90;;;;;;5092309;28;20217;-71
2024/02/15 11:42:58;;;;;;;0.70;0.70;;;3.00;99.90;;;;;;5092471;28;20203;-72
2024/02/15 11:45:32;;;;;;;0.60;0.60;;;2.90;99.90;;;;;;5092782;28;20266;-71
2024/02/15 11:47:59;;;;;;;0.70;0.70;;;2.90;99.90;;;;;;5093190;28;20195;-70
2024/02/15 11:50:28;;;;;;;0.85;0.85;;;2.80;99.90;;;;;;5112532;28;20194;-71
2024/02/15 11:53:05;;;;;;;1.25;1.20;;;2.90;99.90;;;;;;5112476;28;20224;-69
2024/02/15 11:55:32;;;;;;;0.70;0.70;;;2.90;99.90;;;;;;5111090;28;20204;-68
2024/02/15 12:19:56;;;;;;;0.90;0.90;;;3.00;99.90;;;;;;5115488;28;20336;-69
2024/02/15 12:22:26;;;;;;;0.60;0.60;;;3.00;99.90;;;;;;5115514;28;20188;-68
2024/02/15 12:25:00;;;;;;;0.73;0.73;;;3.00;99.90;;;;;;5115515;28;20184;-67
2024/02/15 12:27:30;;;;;;;0.80;0.80;;;3.00;99.90;;;;;;5115450;28;20320;-67
2024/02/15 12:29:59;;;;;;;0.65;0.65;;;3.00;99.90;;;;;;5115426;28;20194;-68
2024/02/15 12:32:28;;;;;;;0.65;0.65;;;3.10;99.90;;;;;;5096742;28;20202;-67
2024/02/15 12:35:16;;;;;;;0.70;0.70;;;3.20;99.90;;;;;;5095047;28;20196;-67
2024/02/15 12:37:43;;;;;;;0.60;0.60;;;3.10;99.90;;;;;;5094935;28;20243;-67
2024/02/15 12:40:15;;;;;;;0.80;0.80;;;3.10;99.90;;;;;;5093798;28;20227;-67
2024/02/15 12:42:43;;;;;;;0.60;0.60;;;3.10;99.90;;;;;;5093370;28;20206;-67
2024/02/15 12:45:20;;;;;;;0.60;0.60;;;3.00;99.90;;;;;;5104231;28;20196;-67
2024/02/15 12:47:48;;;;;;;0.68;0.68;;;3.00;99.90;;;;;;5113733;28;20199;-67
2024/02/15 12:57:32;;;;;;;0.70;0.70;;;3.10;99.90;;;;;;4996212;28;20203;-69
2024/02/15 12:59:58;;;;;;;0.65;0.65;;;3.10;99.90;;;;;;5052128;28;20212;-69
2024/02/15 13:13:21;;;;;;;0.80;0.80;;;3.20;99.90;;;;;;4881680;29;20236;-66
2024/02/15 13:15:46;;;;;;;0.60;0.60;;;3.40;99.90;;;;;;4863591;29;20590;-66
2024/02/15 13:18:13;;;;;;;0.63;0.63;;;3.60;99.90;;;;;;4878175;29;20211;-66
2024/02/15 13:20:39;;;;;;;0.60;0.60;;;3.60;99.90;;;;;;4877551;29;20236;-66
2024/02/15 13:23:09;;;;;;;0.65;0.65;;;3.60;99.90;;;;;;4877995;29;20758;-67
2024/02/15 13:25:42;;;;;;;0.60;0.60;;;3.60;99.90;;;;;;4877670;29;20227;-67
2024/02/15 13:28:10;;;;;;;0.77;0.77;;;3.50;99.90;;;;;;4869796;29;20387;-66
2024/02/15 13:30:36;;;;;;;0.60;0.60;;;3.40;99.90;;;;;;4843674;29;20223;-67
2024/02/15 13:33:02;;;;;;;0.80;0.80;;;3.20;99.90;;;;;;4859260;29;20224;-66
2024/02/15 13:35:28;;;;;;;0.60;0.60;;;3.30;99.90;;;;;;4859169;29;20270;-67
2024/02/15 13:37:57;;;;;;;0.70;0.70;;;3.40;99.90;;;;;;4859216;29;20213;-67
2024/02/15 13:40:24;;;;;;;0.60;0.60;;;3.40;99.90;;;;;;4858983;29;20269;-66
2024/02/15 13:42:55;;;;;;;7.72;2.25;;;3.20;99.90;;;;;;4953489;28;20199;-66
2024/02/15 13:45:22;;;;;;;0.95;0.90;;;3.10;99.90;;;;;;5011432;28;20222;-68
2024/02/15 13:47:55;;;;;;;0.60;0.60;;;3.00;99.90;;;;;;5071774;28;20215;-67
2024/02/15 13:50:21;;;;;;;0.80;0.80;;;3.00;99.90;;;;;;5073284;28;20231;-67
2024/02/15 13:52:47;;;;;;;0.63;0.63;;;2.90;99.90;;;;;;5072970;28;20236;-66
2024/02/15 13:55:14;;;;;;;0.60;0.60;;;2.80;99.90;;;;;;5073182;28;20204;-67